Terminal Aerodrome Forecast
Issued by NWS North Platte, NE

Home | Current Version | Previous Version | Text Only | Print | Product List | Glossary On
Versions: 1 2 3 4 5 6 7 8 9 10 11 12
000
FTUS43 KLBF 112320
TAFLBF
TAF
KLBF 112320Z 1200/1224 34013G20KT P6SM FEW120 BKN200
     FM120100 34008KT P6SM FEW120 BKN200
     FM121000 29004KT P6SM FEW200
     FM121700 27009KT P6SM SCT200=

USA.gov is the U.S. government's official web portal to all federal, state and local government web resources and services.